createdAt,value
2022-11-08T00:01:03.665Z,1.25
2022-11-08T00:03:31.778Z,2.05
2022-11-08T00:06:16.914Z,2.05
2022-11-08T00:09:02.396Z,1.60
2022-11-08T00:11:48.872Z,1.50
2022-11-08T00:14:16.772Z,2.05
2022-11-08T00:16:44.582Z,1.50
2022-11-08T00:19:12.453Z,1.33
2022-11-08T00:21:40.430Z,1.75
2022-11-08T00:24:08.550Z,1.95
2022-11-08T00:26:37.729Z,1.38
2022-11-08T00:29:05.641Z,1.70
2022-11-08T00:31:33.426Z,1.50
2022-11-08T00:34:01.323Z,1.50
2022-11-08T00:36:29.092Z,1.30
2022-11-08T00:38:57.329Z,1.55
2022-11-08T00:41:25.169Z,1.38
2022-11-08T00:43:54.339Z,1.65
2022-11-08T00:46:22.277Z,1.70
2022-11-08T00:48:50.016Z,1.55
2022-11-08T00:51:18.122Z,1.65
2022-11-08T00:53:45.913Z,1.60
2022-11-08T00:56:14.101Z,1.48
2022-11-08T00:58:43.793Z,1.27
2022-11-08T01:01:14.661Z,1.92
2022-11-08T01:03:42.731Z,1.75
2022-11-08T01:06:12.011Z,1.63
2022-11-08T01:08:40.203Z,1.73
2022-11-08T01:11:09.558Z,1.48
2022-11-08T01:13:37.802Z,2.35
2022-11-08T01:16:10.056Z,1.60
2022-11-08T01:18:39.506Z,1.52
2022-11-08T01:21:07.820Z,1.70
2022-11-08T01:23:35.763Z,1.80
2022-11-08T01:26:05.659Z,1.85
2022-11-08T01:28:34.047Z,1.60
2022-11-08T01:31:05.253Z,1.52
2022-11-08T01:33:33.079Z,2.20
2022-11-08T01:36:02.576Z,1.50
2022-11-08T01:38:30.359Z,1.80
2022-11-08T01:40:58.119Z,1.67
2022-11-08T01:43:38.365Z,1.70
2022-11-08T01:46:33.608Z,1.50
2022-11-08T01:49:33.265Z,1.73
2022-11-08T01:52:12.233Z,1.60
2022-11-08T01:54:45.412Z,1.88
2022-11-08T01:57:18.450Z,2.03
2022-11-08T01:59:51.648Z,1.85
2022-11-08T02:02:20.704Z,1.55
2022-11-08T02:04:49.072Z,1.58
2022-11-08T02:07:18.938Z,2.03
2022-11-08T02:09:48.707Z,1.90
2022-11-08T02:12:18.167Z,1.83
2022-11-08T02:14:46.152Z,2.10
2022-11-08T02:17:14.548Z,2.00
2022-11-08T02:19:45.720Z,1.83
2022-11-08T02:22:30.011Z,2.22
2022-11-08T02:25:00.309Z,2.13
2022-11-08T02:27:28.458Z,2.00
2022-11-08T02:29:57.751Z,2.53
2022-11-08T02:32:25.695Z,1.70
2022-11-08T02:35:00.220Z,1.80
2022-11-08T02:37:28.821Z,2.00
2022-11-08T02:39:56.538Z,2.03
2022-11-08T02:42:25.782Z,1.70
2022-11-08T02:44:53.708Z,1.52
2022-11-08T02:47:21.585Z,2.20
2022-11-08T02:49:49.465Z,1.90
2022-11-08T02:52:17.481Z,1.80
2022-11-08T02:54:45.226Z,1.38
2022-11-08T02:57:13.072Z,2.00
2022-11-08T02:59:42.444Z,1.58
2022-11-08T03:02:10.365Z,2.20
2022-11-08T03:04:38.194Z,1.90
2022-11-08T03:07:05.999Z,1.67
2022-11-08T03:09:33.974Z,2.10
2022-11-08T03:12:01.749Z,1.60
2022-11-08T03:14:29.718Z,1.65
2022-11-08T03:16:58.898Z,1.65
2022-11-08T03:19:26.808Z,1.75
2022-11-08T03:21:54.757Z,2.05
2022-11-08T03:24:22.607Z,2.22
2022-11-08T03:26:50.434Z,1.88
2022-11-08T03:29:18.314Z,1.83
2022-11-08T03:31:46.278Z,2.08
2022-11-08T03:34:15.486Z,1.95
2022-11-08T03:36:43.495Z,2.10
2022-11-08T03:39:11.608Z,1.92
2022-11-08T03:41:39.820Z,1.88
2022-11-08T03:44:08.101Z,1.90
2022-11-08T03:46:36.004Z,1.83
2022-11-08T03:49:03.882Z,1.55
2022-11-08T03:51:33.208Z,1.80
2022-11-08T03:54:01.493Z,2.20
2022-11-08T03:56:29.380Z,1.98
2022-11-08T04:01:49.654Z,2.17
2022-11-08T04:04:17.620Z,1.95
2022-11-08T04:06:46.867Z,2.65
2022-11-08T04:09:20.444Z,2.00
2022-11-08T04:12:07.130Z,2.33
2022-11-08T04:14:52.422Z,1.80
2022-11-08T04:17:40.302Z,2.03
2022-11-08T04:20:27.899Z,2.58
2022-11-08T04:22:57.133Z,2.42
2022-11-08T04:25:25.124Z,2.33
2022-11-08T04:27:52.981Z,2.38
2022-11-08T04:30:20.865Z,2.25
2022-11-08T04:32:48.736Z,2.22
2022-11-08T04:35:16.775Z,2.13
2022-11-08T04:38:11.104Z,2.20
2022-11-08T04:40:39.023Z,1.83
2022-11-08T04:43:06.896Z,2.10
2022-11-08T04:45:34.891Z,2.13
2022-11-08T04:48:02.815Z,2.03
2022-11-08T04:50:33.743Z,2.25
2022-11-08T04:53:05.105Z,1.83
2022-11-08T04:55:34.259Z,1.83
2022-11-08T04:58:04.250Z,1.80
2022-11-08T05:00:32.075Z,1.73
2022-11-08T05:03:02.971Z,2.03
2022-11-08T05:05:32.367Z,1.50
2022-11-08T05:08:00.334Z,1.60
2022-11-08T05:10:28.122Z,1.98
2022-11-08T05:12:58.685Z,2.15
2022-11-08T05:15:26.665Z,1.90
2022-11-08T05:17:54.585Z,1.95
2022-11-08T05:20:40.132Z,1.60
2022-11-08T05:23:26.183Z,1.70
2022-11-08T05:26:20.853Z,1.63
2022-11-08T05:28:50.176Z,1.88
2022-11-08T05:31:18.609Z,2.03
2022-11-08T05:33:47.019Z,2.20
2022-11-08T05:36:16.660Z,1.85
2022-11-08T05:38:44.619Z,1.52
2022-11-08T05:41:14.098Z,2.22
2022-11-08T05:43:42.003Z,1.60
2022-11-08T05:46:11.220Z,1.92
2022-11-08T05:48:39.061Z,2.22
2022-11-08T05:51:07.087Z,1.80
2022-11-08T05:53:35.618Z,2.25
2022-11-08T05:56:05.044Z,2.20
2022-11-08T05:58:34.433Z,2.38
2022-11-08T06:01:02.747Z,2.80
2022-11-08T06:03:32.263Z,2.70
2022-11-08T06:06:03.610Z,3.15
2022-11-08T06:08:31.797Z,3.20
2022-11-08T06:11:03.652Z,2.88
2022-11-08T06:13:32.293Z,3.03
2022-11-08T06:16:02.176Z,5.10
2022-11-08T06:18:32.421Z,4.25
2022-11-08T06:21:00.571Z,4.30
2022-11-08T06:23:29.064Z,2.72
2022-11-08T06:28:49.267Z,6.47
2022-11-08T06:31:17.509Z,9.85
2022-11-08T06:33:46.788Z,6.05
2022-11-08T06:36:14.683Z,3.42
2022-11-08T06:38:47.766Z,2.78
2022-11-08T06:41:19.624Z,2.50
2022-11-08T06:43:48.012Z,2.17
2022-11-08T06:46:16.374Z,2.53
2022-11-08T06:48:44.211Z,2.80
2022-11-08T06:51:13.532Z,3.08
2022-11-08T06:53:41.806Z,3.05
2022-11-08T06:56:09.881Z,2.15
2022-11-08T06:58:37.809Z,1.80
2022-11-08T07:01:07.017Z,2.00
2022-11-08T07:03:35.591Z,2.75
2022-11-08T07:06:04.862Z,1.80
2022-11-08T07:08:35.169Z,1.80
2022-11-08T07:11:03.782Z,2.00
2022-11-08T07:13:32.100Z,4.03
2022-11-08T07:16:01.025Z,3.10
2022-11-08T07:18:29.840Z,2.50
2022-11-08T07:21:02.070Z,2.47
2022-11-08T07:23:56.696Z,2.60
2022-11-08T07:26:24.567Z,3.33
2022-11-08T07:28:52.369Z,3.22
2022-11-08T07:31:20.254Z,3.15
2022-11-08T07:33:48.165Z,2.35
2022-11-08T07:36:16.106Z,2.13
2022-11-08T07:38:44.346Z,2.75
2022-11-08T07:41:13.668Z,2.20
2022-11-08T07:43:41.501Z,2.28
2022-11-08T07:46:17.262Z,2.55
2022-11-08T07:48:45.208Z,1.95
2022-11-08T07:51:13.043Z,2.10
2022-11-08T07:53:41.035Z,2.25
2022-11-08T07:56:09.028Z,2.08
2022-11-08T07:58:38.394Z,2.05
2022-11-08T08:01:07.005Z,2.87
2022-11-08T08:03:35.543Z,2.13
2022-11-08T08:06:03.839Z,1.88
2022-11-08T08:08:31.845Z,1.95
2022-11-08T08:11:01.224Z,2.30
2022-11-08T08:13:29.917Z,3.05
2022-11-08T08:16:02.857Z,2.20
2022-11-08T08:18:31.953Z,1.95
2022-11-08T08:21:00.029Z,1.73
2022-11-08T08:23:28.079Z,2.08
2022-11-08T08:25:57.132Z,2.83
2022-11-08T08:28:25.396Z,5.32
2022-11-08T08:30:53.226Z,6.93
2022-11-08T08:33:28.361Z,11.07
2022-11-08T08:35:57.088Z,4.60
2022-11-08T08:38:24.975Z,2.72
2022-11-08T08:40:53.211Z,2.35
2022-11-08T08:43:21.912Z,1.92
2022-11-08T08:45:50.127Z,2.10
2022-11-08T08:48:18.415Z,1.80
2022-11-08T08:50:48.351Z,1.67
2022-11-08T08:53:16.741Z,2.55
2022-11-08T08:55:44.950Z,2.22
2022-11-08T08:58:12.796Z,1.83
2022-11-08T09:03:28.745Z,1.90
2022-11-08T09:05:59.840Z,1.42
2022-11-08T09:08:28.485Z,1.70
2022-11-08T09:10:57.631Z,1.90
2022-11-08T09:13:27.190Z,1.73
2022-11-08T09:15:55.886Z,1.67
2022-11-08T09:18:24.267Z,1.90
2022-11-08T09:20:52.308Z,1.50
2022-11-08T09:23:21.666Z,1.77
2022-11-08T09:25:49.767Z,1.50
2022-11-08T09:28:18.917Z,1.60
2022-11-08T09:30:47.184Z,1.40
2022-11-08T09:33:15.319Z,1.58
2022-11-08T09:35:43.560Z,1.38
2022-11-08T09:38:11.480Z,1.70
2022-11-08T09:40:50.383Z,1.63
2022-11-08T09:43:39.181Z,1.50
2022-11-08T09:46:10.542Z,1.42
2022-11-08T09:48:43.088Z,1.40
2022-11-08T09:53:49.295Z,1.20
2022-11-08T09:56:26.083Z,1.05
2022-11-08T09:58:55.740Z,1.63
2022-11-08T10:01:27.213Z,1.50
2022-11-08T10:03:59.121Z,1.55
2022-11-08T10:06:50.782Z,1.50
2022-11-08T10:09:29.354Z,1.73
2022-11-08T10:12:09.847Z,1.50
2022-11-08T10:14:54.169Z,1.50
2022-11-08T10:17:37.926Z,1.40
2022-11-08T10:20:20.320Z,1.58
2022-11-08T10:22:57.196Z,1.70
2022-11-08T10:25:27.952Z,1.40
2022-11-08T10:28:00.949Z,1.42
2022-11-08T10:30:34.868Z,1.63
2022-11-08T10:33:03.830Z,1.63
2022-11-08T10:35:39.393Z,1.58
2022-11-08T10:38:18.847Z,1.30
2022-11-08T10:40:54.456Z,1.27
2022-11-08T10:43:32.312Z,1.33
2022-11-08T10:46:00.239Z,1.30
2022-11-08T10:48:28.073Z,1.90
2022-11-08T10:50:56.697Z,1.58
2022-11-08T10:53:28.036Z,1.42
2022-11-08T10:56:01.143Z,1.52
2022-11-08T10:58:33.623Z,1.13
2022-11-08T11:01:04.430Z,1.55
2022-11-08T11:03:32.491Z,1.40
2022-11-08T11:06:02.129Z,1.30
2022-11-08T11:08:30.335Z,1.90
2022-11-08T11:11:23.166Z,1.67
2022-11-08T11:14:07.857Z,1.20
2022-11-08T11:16:37.600Z,2.13
2022-11-08T11:19:07.910Z,1.70
2022-11-08T11:21:38.125Z,1.60
2022-11-08T11:24:13.426Z,1.38
2022-11-08T11:26:47.499Z,1.40
2022-11-08T11:29:23.200Z,1.27
2022-11-08T11:31:53.916Z,1.33
2022-11-08T11:34:43.862Z,1.33
2022-11-08T11:37:23.627Z,1.48
2022-11-08T11:40:02.669Z,1.63
2022-11-08T11:42:50.893Z,1.20
2022-11-08T11:45:25.475Z,1.60
2022-11-08T11:47:56.176Z,1.00
2022-11-08T11:50:32.190Z,1.65
2022-11-08T11:53:02.276Z,1.17
2022-11-08T11:55:44.876Z,1.48
2022-11-08T11:58:27.810Z,1.08
2022-11-08T12:01:02.337Z,1.35
2022-11-08T12:04:00.743Z,1.02
2022-11-08T12:06:43.435Z,1.10
2022-11-08T12:09:26.185Z,0.93
2022-11-08T12:12:31.164Z,1.05
2022-11-08T12:15:09.756Z,1.02
2022-11-08T12:21:13.505Z,1.20
2022-11-08T12:24:09.504Z,1.10
2022-11-08T12:26:42.354Z,1.30
2022-11-08T12:29:34.412Z,1.20
2022-11-08T12:32:28.852Z,1.07
2022-11-08T12:35:13.113Z,1.00
2022-11-08T12:37:55.475Z,0.88
2022-11-08T12:40:30.235Z,0.88
2022-11-08T12:43:23.608Z,0.95
2022-11-08T12:45:58.345Z,1.10
2022-11-08T12:49:06.910Z,0.88
2022-11-08T12:51:48.637Z,1.02
2022-11-08T12:54:25.440Z,0.70
2022-11-08T12:56:56.199Z,1.13
2022-11-08T12:59:28.989Z,1.00
2022-11-08T13:01:58.120Z,0.93
2022-11-08T13:04:40.618Z,0.85
2022-11-08T13:07:19.299Z,0.82
2022-11-08T13:09:52.877Z,1.17
2022-11-08T13:12:31.584Z,0.95
2022-11-08T13:15:01.320Z,0.95
2022-11-08T13:17:31.044Z,1.08
2022-11-08T13:20:06.152Z,0.82
2022-11-08T13:23:00.315Z,1.02
2022-11-08T13:25:38.633Z,1.05
2022-11-08T13:28:35.178Z,0.80
2022-11-08T13:31:13.423Z,0.80
2022-11-08T13:33:49.325Z,0.93
2022-11-08T13:36:29.822Z,1.20
2022-11-08T13:39:20.102Z,0.90
2022-11-08T13:42:06.717Z,1.00
2022-11-08T13:44:57.992Z,1.17
2022-11-08T13:47:53.276Z,0.90
2022-11-08T13:50:50.866Z,1.38
2022-11-08T13:53:54.485Z,0.90
2022-11-08T13:56:42.832Z,1.00
2022-11-08T13:59:50.699Z,0.82
2022-11-08T14:02:35.431Z,0.77
2022-11-08T14:05:24.396Z,1.20
2022-11-08T14:08:06.592Z,1.10
2022-11-08T14:10:41.281Z,0.90
2022-11-08T14:13:20.856Z,0.98
2022-11-08T14:15:55.082Z,0.90
2022-11-08T14:18:27.439Z,1.20
2022-11-08T14:20:56.137Z,0.82
2022-11-08T14:23:29.104Z,1.02
2022-11-08T14:25:59.464Z,0.90
2022-11-08T14:28:31.585Z,1.20
2022-11-08T14:31:01.766Z,1.08
2022-11-08T14:33:30.888Z,1.08
2022-11-08T14:36:01.517Z,1.52
2022-11-08T14:38:31.719Z,1.20
2022-11-08T14:41:01.977Z,1.10
2022-11-08T14:43:35.269Z,1.00
2022-11-08T14:46:12.498Z,0.82
2022-11-08T14:48:50.478Z,1.00
2022-11-08T14:51:18.535Z,1.00
2022-11-08T14:53:48.149Z,1.20
2022-11-08T14:56:18.871Z,1.10
2022-11-08T14:58:49.875Z,1.10
2022-11-08T15:01:21.909Z,0.90
2022-11-08T15:03:55.389Z,0.85
2022-11-08T15:06:31.775Z,0.90
2022-11-08T15:08:59.999Z,1.10
2022-11-08T15:11:30.853Z,1.15
2022-11-08T15:14:03.069Z,0.70
2022-11-08T15:16:43.214Z,0.80
2022-11-08T15:19:37.241Z,1.10
2022-11-08T15:22:25.163Z,0.85
2022-11-08T15:25:02.489Z,0.75
2022-11-08T15:27:30.689Z,1.10
2022-11-08T15:30:04.882Z,0.80
2022-11-08T15:32:37.565Z,1.00
2022-11-08T15:35:08.253Z,1.02
2022-11-08T15:37:38.346Z,0.93
2022-11-08T15:40:22.132Z,1.20
2022-11-08T15:42:51.985Z,1.13
2022-11-08T15:45:29.176Z,1.13
2022-11-08T15:48:11.019Z,1.10
2022-11-08T15:50:39.195Z,1.07
2022-11-08T15:53:07.554Z,1.00
2022-11-08T15:55:38.791Z,1.15
2022-11-08T15:58:11.779Z,0.88
2022-11-08T16:00:46.732Z,1.35
2022-11-08T16:03:15.057Z,1.10
2022-11-08T16:05:42.900Z,1.20
2022-11-08T16:08:12.464Z,1.10
2022-11-08T16:10:46.842Z,0.98
2022-11-08T16:13:19.983Z,1.15
2022-11-08T16:15:50.172Z,1.10
2022-11-08T16:18:19.789Z,1.52
2022-11-08T16:20:48.513Z,1.10
2022-11-08T16:23:16.776Z,0.90
2022-11-08T16:25:50.113Z,0.85
2022-11-08T16:28:21.914Z,1.00
2022-11-08T16:30:51.438Z,1.25
2022-11-08T16:33:21.623Z,1.30
2022-11-08T16:35:50.546Z,1.20
2022-11-08T16:38:23.985Z,1.10
2022-11-08T16:40:51.850Z,1.20
2022-11-08T16:43:19.791Z,1.83
2022-11-08T16:46:05.044Z,1.33
2022-11-08T16:48:37.025Z,1.75
2022-11-08T16:51:08.359Z,2.03
2022-11-08T16:53:37.635Z,1.60
2022-11-08T16:56:05.532Z,1.38
2022-11-08T16:58:33.631Z,1.30
2022-11-08T17:01:05.019Z,1.20
2022-11-08T17:03:38.572Z,0.95
2022-11-08T17:06:06.647Z,1.15
2022-11-08T17:08:34.568Z,1.50
2022-11-08T17:11:02.538Z,1.17
2022-11-08T17:13:30.422Z,1.30
2022-11-08T17:15:58.287Z,1.17
2022-11-08T17:18:26.283Z,1.27
2022-11-08T17:20:55.795Z,1.30
2022-11-08T17:23:23.821Z,1.25
2022-11-08T17:25:51.676Z,0.90
2022-11-08T17:28:19.910Z,1.27
2022-11-08T17:30:48.013Z,1.20
2022-11-08T17:33:16.211Z,1.20
2022-11-08T17:35:44.776Z,1.13
2022-11-08T17:38:14.144Z,1.10
2022-11-08T17:40:42.689Z,1.20
2022-11-08T17:43:10.733Z,1.33
2022-11-08T17:45:38.565Z,1.30
2022-11-08T17:48:06.677Z,1.90
2022-11-08T17:50:34.785Z,2.25
2022-11-08T17:53:02.601Z,1.27
2022-11-08T17:55:32.461Z,1.67
2022-11-08T17:58:00.337Z,2.00
2022-11-08T18:00:28.303Z,1.23
2022-11-08T18:02:56.244Z,1.40
2022-11-08T18:05:24.146Z,1.20
2022-11-08T18:07:52.549Z,1.17
2022-11-08T18:10:20.566Z,1.05
2022-11-08T18:12:50.439Z,0.98
2022-11-08T18:15:18.633Z,1.63
2022-11-08T18:17:46.535Z,1.33
2022-11-08T18:20:14.652Z,1.33
2022-11-08T18:22:42.788Z,1.08
2022-11-08T18:25:11.080Z,1.25
2022-11-08T18:27:39.221Z,1.30
2022-11-08T18:30:09.624Z,1.20
2022-11-08T18:32:37.683Z,1.70
2022-11-08T18:35:06.633Z,1.20
2022-11-08T18:37:34.611Z,1.48
2022-11-08T18:40:02.532Z,1.30
2022-11-08T18:42:30.581Z,1.20
2022-11-08T18:44:58.565Z,1.60
2022-11-08T18:47:28.483Z,1.40
2022-11-08T18:49:59.501Z,1.30
2022-11-08T18:52:27.419Z,1.20
2022-11-08T18:55:20.401Z,1.25
2022-11-08T19:00:41.049Z,1.23
2022-11-08T19:05:38.026Z,1.40
2022-11-08T19:08:06.363Z,1.60
2022-11-08T19:10:34.622Z,1.30
2022-11-08T19:13:02.549Z,1.50
2022-11-08T19:15:30.668Z,1.67
2022-11-08T19:17:58.690Z,1.58
2022-11-08T19:20:27.893Z,1.40
2022-11-08T19:22:55.962Z,1.30
2022-11-08T19:25:55.567Z,1.88
2022-11-08T19:28:24.065Z,1.70
2022-11-08T19:30:52.915Z,1.40
2022-11-08T19:33:23.525Z,1.58
2022-11-08T19:35:53.475Z,1.90
2022-11-08T19:38:22.187Z,1.92
2022-11-08T19:40:50.286Z,1.85
2022-11-08T19:43:18.986Z,1.48
2022-11-08T19:45:53.091Z,1.60
2022-11-08T19:48:21.486Z,1.85
2022-11-08T19:50:50.611Z,1.42
2022-11-08T19:53:19.897Z,1.73
2022-11-08T19:55:47.946Z,1.45
2022-11-08T19:58:16.043Z,1.30
2022-11-08T20:00:44.129Z,1.73
2022-11-08T20:03:12.234Z,1.35
2022-11-08T20:05:40.125Z,1.48
2022-11-08T20:08:09.643Z,1.45
2022-11-08T20:10:38.974Z,1.30
2022-11-08T20:13:08.809Z,1.88
2022-11-08T20:15:37.127Z,1.70
2022-11-08T20:18:06.432Z,1.45
2022-11-08T20:20:34.411Z,1.83
2022-11-08T20:23:02.602Z,1.40
2022-11-08T20:25:30.444Z,1.63
2022-11-08T20:27:59.705Z,1.58
2022-11-08T20:30:27.843Z,1.50
2022-11-08T20:32:55.674Z,1.55
2022-11-08T20:35:24.251Z,1.63
2022-11-08T20:37:52.116Z,1.48
2022-11-08T20:40:20.017Z,1.17
2022-11-08T20:42:48.002Z,1.35
2022-11-08T20:45:17.330Z,1.42
2022-11-08T20:47:48.092Z,1.30
2022-11-08T20:50:16.527Z,1.50
2022-11-08T20:52:44.810Z,1.30
2022-11-08T20:55:12.652Z,1.63
2022-11-08T20:57:41.185Z,1.38
2022-11-08T21:00:13.533Z,1.38
2022-11-08T21:02:43.266Z,1.38
2022-11-08T21:05:11.360Z,1.40
2022-11-08T21:08:01.968Z,1.50
2022-11-08T21:10:42.056Z,1.30
2022-11-08T21:13:11.235Z,1.20
2022-11-08T21:15:39.223Z,1.20
2022-11-08T21:18:09.495Z,1.40
2022-11-08T21:20:37.418Z,1.55
2022-11-08T21:23:05.725Z,1.40
2022-11-08T21:25:33.796Z,1.20
2022-11-08T21:28:01.764Z,1.30
2022-11-08T21:30:29.628Z,1.30
2022-11-08T21:32:57.528Z,1.50
2022-11-08T21:35:26.863Z,1.27
2022-11-08T21:37:54.705Z,1.30
2022-11-08T21:40:22.685Z,1.25
2022-11-08T21:42:50.571Z,1.42
2022-11-08T21:45:18.778Z,1.10
2022-11-08T21:47:50.220Z,1.50
2022-11-08T21:50:18.622Z,1.42
2022-11-08T21:52:48.972Z,1.85
2022-11-08T21:55:17.363Z,1.40
2022-11-08T21:57:45.468Z,1.25
2022-11-08T22:00:15.164Z,1.40
2022-11-08T22:02:43.103Z,1.42
2022-11-08T22:05:11.171Z,1.35
2022-11-08T22:07:39.444Z,1.38
2022-11-08T22:10:11.638Z,1.38
2022-11-08T22:12:39.781Z,1.40
2022-11-08T22:15:09.924Z,1.48
2022-11-08T22:17:46.032Z,1.40
2022-11-08T22:20:26.464Z,1.27
2022-11-08T22:22:54.796Z,1.42
2022-11-08T22:25:24.035Z,1.30
2022-11-08T22:27:51.954Z,1.40
2022-11-08T22:30:20.088Z,1.40
2022-11-08T22:32:47.949Z,1.42
2022-11-08T22:35:16.067Z,1.33
2022-11-08T22:37:44.641Z,1.35
2022-11-08T22:40:13.428Z,1.30
2022-11-08T22:42:42.823Z,1.50
2022-11-08T22:45:11.868Z,1.10
2022-11-08T22:47:39.915Z,1.50
2022-11-08T22:50:08.512Z,1.70
2022-11-08T22:52:36.426Z,1.63
2022-11-08T22:55:04.560Z,1.70
2022-11-08T22:57:32.451Z,1.35
2022-11-08T23:00:01.752Z,1.73
2022-11-08T23:06:35.893Z,1.50
2022-11-08T23:09:04.276Z,1.67
2022-11-08T23:11:49.770Z,1.60
2022-11-08T23:14:37.449Z,1.50
2022-11-08T23:17:07.319Z,1.35
2022-11-08T23:19:52.650Z,1.35
2022-11-08T23:22:40.262Z,1.40
2022-11-08T23:25:08.998Z,1.50
2022-11-08T23:27:54.302Z,1.60
2022-11-08T23:30:39.822Z,1.23
2022-11-08T23:33:08.008Z,1.50
2022-11-08T23:35:36.078Z,1.50
2022-11-08T23:38:05.905Z,1.63
2022-11-08T23:40:51.126Z,1.52
2022-11-08T23:43:38.222Z,1.73
2022-11-08T23:46:07.848Z,1.45
2022-11-08T23:48:36.747Z,1.40
2022-11-08T23:51:05.820Z,1.42
2022-11-08T23:53:37.362Z,1.60
2022-11-08T23:56:05.993Z,1.47
2022-11-08T23:58:34.079Z,1.48
